createdAt,value
2017-07-03T00:00:07.462Z,6.47
2017-07-03T00:02:35.645Z,8.47
2017-07-03T00:05:03.852Z,9.50
2017-07-03T00:07:32.792Z,8.80
2017-07-03T00:10:01.013Z,7.40
2017-07-03T00:12:29.944Z,9.00
2017-07-03T00:14:58.140Z,7.93
2017-07-03T00:17:26.312Z,11.30
2017-07-03T00:19:54.487Z,9.73
2017-07-03T00:22:22.663Z,12.53
2017-07-03T00:24:50.874Z,9.10
2017-07-03T00:27:19.803Z,9.27
2017-07-03T00:29:47.965Z,8.43
2017-07-03T00:32:16.199Z,10.00
2017-07-03T00:34:45.168Z,7.20
2017-07-03T00:37:13.354Z,11.33
2017-07-03T00:39:41.524Z,8.50
2017-07-03T00:42:09.755Z,10.33
2017-07-03T00:44:37.912Z,8.40
2017-07-03T00:47:06.086Z,9.63
2017-07-03T00:49:34.302Z,12.03
2017-07-03T00:52:02.469Z,9.07
2017-07-03T00:54:30.642Z,8.07
2017-07-03T00:56:58.903Z,8.07
2017-07-03T00:59:27.101Z,10.90
2017-07-03T01:01:55.320Z,8.73
2017-07-03T01:04:24.376Z,8.57
2017-07-03T01:06:52.554Z,13.90
2017-07-03T01:09:20.713Z,10.33
2017-07-03T01:11:48.985Z,11.07
2017-07-03T01:14:17.153Z,10.67
2017-07-03T01:16:45.360Z,14.13
2017-07-03T01:19:14.327Z,9.27
2017-07-03T01:21:42.606Z,9.53
2017-07-03T01:24:10.785Z,11.10
2017-07-03T01:26:38.999Z,10.87
2017-07-03T01:29:07.180Z,8.57
2017-07-03T01:31:35.358Z,7.70
2017-07-03T01:34:03.585Z,9.27
2017-07-03T01:36:32.539Z,9.80
2017-07-03T01:39:00.691Z,12.67
2017-07-03T01:41:28.885Z,10.47
2017-07-03T01:43:57.035Z,10.20
2017-07-03T01:46:25.187Z,7.67
2017-07-03T01:48:54.147Z,12.00
2017-07-03T01:51:22.347Z,7.43
2017-07-03T01:53:51.288Z,13.83
2017-07-03T01:56:19.498Z,13.33
2017-07-03T01:58:47.709Z,9.97
2017-07-03T02:01:16.002Z,9.40
2017-07-03T02:03:44.368Z,10.00
2017-07-03T02:06:12.525Z,9.53
2017-07-03T02:08:40.684Z,9.77
2017-07-03T02:11:08.899Z,12.10
2017-07-03T02:13:37.058Z,8.70
2017-07-03T02:16:05.236Z,12.43
2017-07-03T02:18:33.431Z,9.10
2017-07-03T02:21:01.627Z,13.20
2017-07-03T02:23:29.770Z,12.50
2017-07-03T02:25:57.931Z,8.50
2017-07-03T02:28:26.122Z,10.83
2017-07-03T02:30:54.311Z,10.97
2017-07-03T02:33:22.468Z,9.27
2017-07-03T02:35:50.683Z,9.83
2017-07-03T02:38:19.630Z,14.57
2017-07-03T02:40:47.788Z,13.00
2017-07-03T02:43:16.022Z,11.40
2017-07-03T02:45:44.946Z,10.30
2017-07-03T02:48:13.118Z,9.27
2017-07-03T02:50:41.325Z,8.80
2017-07-03T02:53:09.496Z,9.93
2017-07-03T02:55:37.735Z,8.33
2017-07-03T02:58:05.990Z,13.50
2017-07-03T03:00:34.253Z,15.43
2017-07-03T03:03:03.351Z,12.63
2017-07-03T03:05:31.584Z,11.30
2017-07-03T03:07:59.809Z,9.50
2017-07-03T03:10:27.987Z,11.67
2017-07-03T03:12:56.370Z,8.00
2017-07-03T03:15:24.568Z,12.40
2017-07-03T03:17:52.835Z,14.60
2017-07-03T03:20:21.006Z,8.60
2017-07-03T03:22:49.364Z,9.83
2017-07-03T03:25:17.554Z,9.73
2017-07-03T03:27:45.729Z,13.53
2017-07-03T03:30:13.975Z,13.33
2017-07-03T03:32:42.188Z,11.00
2017-07-03T03:35:10.375Z,14.33
2017-07-03T03:37:38.758Z,9.17
2017-07-03T03:40:07.004Z,17.43
2017-07-03T03:42:35.302Z,13.23
2017-07-03T03:45:03.559Z,8.20
2017-07-03T03:47:31.743Z,11.10
2017-07-03T03:50:00.008Z,7.57
2017-07-03T03:52:28.204Z,11.40
2017-07-03T03:54:57.184Z,9.73
2017-07-03T03:57:25.382Z,7.90
2017-07-03T03:59:53.669Z,8.30
2017-07-03T04:02:22.593Z,9.30
2017-07-03T04:04:50.772Z,8.53
2017-07-03T04:07:19.007Z,10.87
2017-07-03T04:09:48.030Z,12.10
2017-07-03T04:12:16.547Z,12.17
2017-07-03T04:14:44.766Z,15.27
2017-07-03T04:17:13.767Z,11.00
2017-07-03T04:19:42.924Z,10.10
2017-07-03T04:22:11.113Z,14.50
2017-07-03T04:24:40.090Z,13.10
2017-07-03T04:27:08.317Z,10.00
2017-07-03T04:29:36.499Z,7.63
2017-07-03T04:32:04.727Z,8.43
2017-07-03T04:34:32.980Z,9.97
2017-07-03T04:37:01.199Z,12.13
2017-07-03T04:39:30.214Z,9.60
2017-07-03T04:41:58.382Z,8.97
2017-07-03T04:44:26.625Z,7.97
2017-07-03T04:46:55.629Z,10.33
2017-07-03T04:49:23.806Z,11.20
2017-07-03T04:51:52.337Z,7.40
2017-07-03T04:54:20.527Z,8.43
2017-07-03T04:56:48.693Z,8.50
2017-07-03T04:59:16.908Z,11.97
2017-07-03T05:01:45.087Z,9.60
2017-07-03T05:04:13.371Z,12.30
2017-07-03T05:06:41.572Z,11.07
2017-07-03T05:09:09.808Z,7.93
2017-07-03T05:11:38.073Z,14.43
2017-07-03T05:14:07.056Z,8.30
2017-07-03T05:16:35.977Z,8.03
2017-07-03T05:19:04.215Z,9.33
2017-07-03T05:21:33.150Z,11.60
2017-07-03T05:24:01.388Z,7.83
2017-07-03T05:26:29.575Z,14.17
2017-07-03T05:28:57.784Z,14.23
2017-07-03T05:31:25.961Z,10.27
2017-07-03T05:33:54.191Z,10.10
2017-07-03T05:36:22.372Z,10.77
2017-07-03T05:38:50.555Z,6.10
2017-07-03T05:41:18.822Z,11.03
2017-07-03T05:43:52.643Z,12.07
2017-07-03T05:46:20.866Z,19.30
2017-07-03T05:48:49.828Z,11.57
2017-07-03T05:51:18.005Z,10.10
2017-07-03T05:53:46.354Z,9.87
2017-07-03T05:56:14.637Z,16.20
2017-07-03T05:58:42.785Z,8.30
2017-07-03T06:01:10.987Z,12.33
2017-07-03T06:03:39.161Z,12.33
2017-07-03T06:06:07.866Z,8.27
2017-07-03T06:08:36.106Z,12.40
2017-07-03T06:11:04.372Z,11.00
2017-07-03T06:13:32.551Z,9.93
2017-07-03T06:16:00.759Z,9.17
2017-07-03T06:18:28.985Z,16.40
2017-07-03T06:20:57.139Z,8.03
2017-07-03T06:23:25.347Z,23.40
2017-07-03T06:25:54.415Z,9.80
2017-07-03T06:28:22.576Z,16.33
2017-07-03T06:30:51.539Z,19.20
2017-07-03T06:33:19.860Z,21.20
2017-07-03T06:35:48.026Z,15.13
2017-07-03T06:38:16.275Z,16.80
2017-07-03T06:40:44.522Z,10.97
2017-07-03T06:43:12.713Z,15.33
2017-07-03T06:45:41.122Z,15.27
2017-07-03T06:48:09.375Z,13.00
2017-07-03T06:50:37.561Z,15.90
2017-07-03T06:53:05.815Z,9.30
2017-07-03T06:55:33.967Z,16.87
2017-07-03T06:58:02.162Z,16.43
2017-07-03T07:00:31.275Z,13.30
2017-07-03T07:03:00.307Z,10.07
2017-07-03T07:05:28.506Z,12.10
2017-07-03T07:07:56.809Z,14.47
2017-07-03T07:10:25.080Z,16.63
2017-07-03T07:12:53.307Z,15.37
2017-07-03T07:15:21.488Z,13.87
2017-07-03T07:17:50.002Z,17.43
2017-07-03T07:20:18.336Z,20.93
2017-07-03T07:22:46.559Z,11.73
2017-07-03T07:25:15.901Z,13.80
2017-07-03T07:27:44.080Z,12.90
2017-07-03T07:30:12.298Z,11.73
2017-07-03T07:32:41.368Z,15.20
2017-07-03T07:35:09.593Z,12.00
2017-07-03T07:37:38.732Z,12.97
2017-07-03T07:40:06.907Z,15.53
2017-07-03T07:42:35.212Z,13.30
2017-07-03T07:45:03.375Z,9.30
2017-07-03T07:47:31.552Z,17.90
2017-07-03T07:49:59.756Z,11.10
2017-07-03T07:52:28.684Z,15.30
2017-07-03T07:54:57.031Z,17.90
2017-07-03T07:57:25.956Z,12.87
2017-07-03T07:59:54.128Z,13.00
2017-07-03T08:02:22.322Z,11.33
2017-07-03T08:04:50.618Z,9.67
2017-07-03T08:07:18.790Z,10.03
2017-07-03T08:09:47.780Z,15.70
2017-07-03T08:12:15.928Z,16.60
2017-07-03T08:14:44.183Z,9.17
2017-07-03T08:17:12.365Z,10.73
2017-07-03T08:19:40.543Z,13.30
2017-07-03T08:22:08.736Z,13.63
2017-07-03T08:24:36.964Z,18.83
2017-07-03T08:27:05.260Z,14.90
2017-07-03T08:29:33.445Z,13.90
2017-07-03T08:32:01.697Z,11.63
2017-07-03T08:34:29.860Z,12.63
2017-07-03T08:36:58.077Z,10.70
2017-07-03T08:39:26.323Z,12.93
2017-07-03T08:41:54.624Z,10.27
2017-07-03T08:44:22.801Z,12.80
2017-07-03T08:46:51.030Z,14.20
2017-07-03T08:49:19.224Z,13.43
2017-07-03T08:51:47.485Z,8.63
2017-07-03T08:54:15.697Z,18.20
2017-07-03T08:56:43.900Z,13.27
2017-07-03T08:59:12.099Z,10.80
2017-07-03T09:01:40.280Z,10.30
2017-07-03T09:04:09.382Z,7.90
2017-07-03T09:06:37.553Z,15.27
2017-07-03T09:09:05.732Z,10.93
2017-07-03T09:11:33.970Z,8.23
2017-07-03T09:14:02.143Z,6.63
2017-07-03T09:16:30.339Z,11.60
2017-07-03T09:18:58.539Z,8.20
2017-07-03T09:21:26.723Z,8.10
2017-07-03T09:23:54.907Z,16.23
2017-07-03T09:26:23.129Z,9.10
2017-07-03T09:28:51.347Z,10.10
2017-07-03T09:31:19.583Z,7.70
2017-07-03T09:33:47.804Z,11.47
2017-07-03T09:36:15.974Z,7.00
2017-07-03T09:38:44.192Z,9.37
2017-07-03T09:41:12.402Z,8.43
2017-07-03T09:43:40.645Z,12.03
2017-07-03T09:46:08.857Z,7.40
2017-07-03T09:48:37.018Z,7.30
2017-07-03T09:51:05.235Z,8.30
2017-07-03T09:53:33.432Z,3.80
2017-07-03T09:56:01.779Z,4.23
2017-07-03T09:58:30.758Z,4.07
2017-07-03T10:00:58.952Z,6.57
2017-07-03T10:03:27.888Z,5.00
2017-07-03T10:05:56.098Z,4.10
2017-07-03T10:08:25.048Z,6.07
2017-07-03T10:10:53.305Z,5.80
2017-07-03T10:13:21.707Z,4.03
2017-07-03T10:15:49.899Z,9.10
2017-07-03T10:18:18.221Z,10.00
2017-07-03T10:20:46.772Z,4.67
2017-07-03T10:23:15.783Z,4.50
2017-07-03T10:25:44.753Z,4.67
2017-07-03T10:28:13.780Z,4.47
2017-07-03T10:30:42.155Z,6.03
2017-07-03T10:33:10.357Z,4.77
2017-07-03T10:35:38.531Z,3.37
2017-07-03T10:38:06.787Z,5.40
2017-07-03T10:40:35.001Z,4.93
2017-07-03T10:43:03.164Z,4.87
2017-07-03T10:45:31.319Z,3.43
2017-07-03T10:47:59.804Z,4.10
2017-07-03T10:50:28.038Z,6.00
2017-07-03T10:52:56.969Z,6.00
2017-07-03T10:55:25.139Z,4.87
2017-07-03T10:57:53.344Z,4.97
2017-07-03T11:00:21.528Z,7.47
2017-07-03T11:02:50.557Z,5.77
2017-07-03T11:05:18.751Z,4.30
2017-07-03T11:07:46.949Z,3.30
2017-07-03T11:10:15.262Z,3.33
2017-07-03T11:12:44.224Z,5.17
2017-07-03T11:15:12.452Z,4.17
2017-07-03T11:17:40.704Z,3.50
2017-07-03T11:20:09.004Z,3.27
2017-07-03T11:22:37.282Z,3.13
2017-07-03T11:25:05.603Z,4.57
2017-07-03T11:27:33.801Z,3.60
2017-07-03T11:30:02.000Z,5.50
2017-07-03T11:32:30.208Z,3.60
2017-07-03T11:34:58.385Z,3.57
2017-07-03T11:37:26.605Z,4.17
2017-07-03T11:39:54.840Z,4.63
2017-07-03T11:42:23.016Z,3.70
2017-07-03T11:44:51.303Z,3.30
2017-07-03T11:47:20.228Z,3.33
2017-07-03T11:49:48.446Z,4.70
2017-07-03T11:52:16.765Z,4.03
2017-07-03T11:54:44.960Z,5.00
2017-07-03T11:57:13.240Z,2.10
2017-07-03T11:59:41.547Z,3.23
2017-07-03T12:02:09.745Z,3.03
2017-07-03T12:04:38.690Z,8.40
2017-07-03T12:07:06.934Z,3.20
2017-07-03T12:09:35.110Z,4.80
2017-07-03T12:12:03.296Z,3.87
2017-07-03T12:14:31.480Z,3.70
2017-07-03T12:16:59.651Z,3.67
2017-07-03T12:19:27.871Z,5.00
2017-07-03T12:21:56.811Z,3.50
2017-07-03T12:24:25.016Z,3.63
2017-07-03T12:26:53.215Z,8.20
2017-07-03T12:29:22.127Z,5.90
2017-07-03T12:31:50.317Z,4.47
2017-07-03T12:34:18.601Z,3.00
2017-07-03T12:36:46.755Z,3.83
2017-07-03T12:39:14.915Z,3.90
2017-07-03T12:41:43.122Z,3.17
2017-07-03T12:44:11.322Z,3.10
2017-07-03T12:46:39.542Z,2.50
2017-07-03T12:49:07.747Z,2.80
2017-07-03T12:51:35.952Z,6.43
2017-07-03T12:54:04.116Z,3.93
2017-07-03T12:56:32.365Z,3.90
2017-07-03T12:59:00.544Z,6.90
2017-07-03T13:01:28.737Z,3.80
2017-07-03T13:03:57.068Z,3.07
2017-07-03T13:06:25.234Z,4.07
2017-07-03T13:08:53.439Z,3.07
2017-07-03T13:11:22.000Z,4.50
2017-07-03T13:13:50.368Z,3.47
2017-07-03T13:16:18.559Z,5.37
2017-07-03T13:18:46.715Z,2.40
2017-07-03T13:21:14.944Z,4.07
2017-07-03T13:23:43.195Z,4.80
2017-07-03T13:26:11.408Z,2.60
2017-07-03T13:28:40.348Z,3.07
2017-07-03T13:31:08.581Z,3.07
2017-07-03T13:33:36.761Z,4.10
2017-07-03T13:36:04.944Z,2.80
2017-07-03T13:38:33.145Z,4.07
2017-07-03T13:41:01.343Z,4.40
2017-07-03T13:43:29.709Z,4.03
2017-07-03T13:45:57.942Z,3.03
2017-07-03T13:48:26.140Z,4.87
2017-07-03T13:50:54.353Z,3.50
2017-07-03T13:53:23.318Z,4.30
2017-07-03T13:55:51.542Z,5.30
2017-07-03T13:58:19.763Z,3.13
2017-07-03T14:00:47.944Z,4.60
2017-07-03T14:03:16.151Z,3.37
2017-07-03T14:05:45.405Z,3.13
2017-07-03T14:08:13.627Z,3.00
2017-07-03T14:10:42.579Z,4.33
2017-07-03T14:13:10.781Z,4.00
2017-07-03T14:15:39.873Z,5.73
2017-07-03T14:18:08.637Z,3.70
2017-07-03T14:20:36.823Z,8.23
2017-07-03T14:23:05.015Z,3.67
2017-07-03T14:25:33.997Z,9.37
2017-07-03T14:28:02.986Z,3.97
2017-07-03T14:30:31.247Z,3.50
2017-07-03T14:32:59.440Z,2.80
2017-07-03T14:35:28.384Z,3.63
2017-07-03T14:37:56.585Z,3.33
2017-07-03T14:40:24.803Z,3.50
2017-07-03T14:42:53.177Z,3.60
2017-07-03T14:45:22.277Z,3.30
2017-07-03T14:47:50.499Z,5.23
2017-07-03T14:50:18.704Z,3.20
2017-07-03T14:52:47.653Z,3.07
2017-07-03T14:55:15.875Z,5.47
2017-07-03T14:57:44.837Z,3.67
2017-07-03T15:00:13.024Z,3.40
2017-07-03T15:02:41.980Z,3.27
2017-07-03T15:05:10.146Z,3.50
2017-07-03T15:07:38.353Z,5.33
2017-07-03T15:10:06.570Z,4.27
2017-07-03T15:12:34.816Z,3.53
2017-07-03T15:15:03.789Z,3.80
2017-07-03T15:17:31.979Z,7.60
2017-07-03T15:20:00.597Z,3.30
2017-07-03T15:22:28.817Z,4.13
2017-07-03T15:24:56.996Z,3.77
2017-07-03T15:27:25.216Z,4.80
2017-07-03T15:29:53.392Z,4.60
2017-07-03T15:32:21.579Z,3.37
2017-07-03T15:34:49.913Z,3.90
2017-07-03T15:37:18.281Z,3.83
2017-07-03T15:39:47.256Z,7.03
2017-07-03T15:42:15.439Z,4.10
2017-07-03T15:44:44.432Z,4.33
2017-07-03T15:47:13.447Z,4.53
2017-07-03T15:49:41.717Z,5.33
2017-07-03T15:52:09.977Z,4.97
2017-07-03T15:54:38.959Z,4.87
2017-07-03T15:57:07.148Z,3.83
2017-07-03T15:59:36.119Z,5.80
2017-07-03T16:02:04.330Z,3.90
2017-07-03T16:04:32.523Z,6.83
2017-07-03T16:07:00.755Z,5.63
2017-07-03T16:09:29.934Z,4.70
2017-07-03T16:11:58.209Z,4.23
2017-07-03T16:14:26.390Z,4.10
2017-07-03T16:16:55.575Z,6.73
2017-07-03T16:19:23.817Z,3.87
2017-07-03T16:21:52.003Z,4.83
2017-07-03T16:24:20.280Z,5.27
2017-07-03T16:26:48.467Z,3.60
2017-07-03T16:29:16.667Z,3.70
2017-07-03T16:31:45.638Z,3.47
2017-07-03T16:34:13.835Z,6.13
2017-07-03T16:36:42.839Z,4.20
2017-07-03T16:39:11.156Z,8.53
2017-07-03T16:41:39.471Z,3.73
2017-07-03T16:44:07.760Z,4.53
2017-07-03T16:46:36.852Z,4.00
2017-07-03T16:49:05.157Z,4.13
2017-07-03T16:51:33.348Z,6.20
2017-07-03T16:54:01.514Z,6.53
2017-07-03T16:56:30.619Z,5.00
2017-07-03T16:58:58.869Z,6.00
2017-07-03T17:01:27.080Z,4.93
2017-07-03T17:03:55.320Z,4.13
2017-07-03T17:06:23.715Z,3.80
2017-07-03T17:08:51.973Z,4.30
2017-07-03T17:11:20.175Z,3.67
2017-07-03T17:13:48.508Z,2.80
2017-07-03T17:16:16.759Z,4.87
2017-07-03T17:18:45.864Z,4.77
2017-07-03T17:21:14.824Z,3.50
2017-07-03T17:23:42.970Z,3.27
2017-07-03T17:26:11.202Z,8.03
2017-07-03T17:28:40.173Z,12.73
2017-07-03T17:31:08.357Z,3.40
2017-07-03T17:33:36.572Z,5.83
2017-07-03T17:36:04.752Z,3.67
2017-07-03T17:38:32.953Z,3.37
2017-07-03T17:41:01.164Z,5.13
2017-07-03T17:43:29.364Z,11.80
2017-07-03T17:45:57.570Z,12.97
2017-07-03T17:48:25.817Z,10.67
2017-07-03T17:50:54.045Z,6.53
2017-07-03T17:53:23.169Z,6.70
2017-07-03T17:55:51.485Z,8.60
2017-07-03T17:58:19.667Z,6.80
2017-07-03T18:00:47.885Z,7.33
2017-07-03T18:03:16.045Z,7.53
2017-07-03T18:05:44.376Z,4.70
2017-07-03T18:08:12.589Z,7.77
2017-07-03T18:10:41.700Z,6.60
2017-07-03T18:13:09.904Z,6.83
2017-07-03T18:15:38.255Z,4.67
2017-07-03T18:18:06.454Z,4.23
2017-07-03T18:20:34.653Z,5.13
2017-07-03T18:23:02.880Z,10.23
2017-07-03T18:25:31.168Z,3.10
2017-07-03T18:27:59.375Z,4.73
2017-07-03T18:30:27.665Z,6.60
2017-07-03T18:32:56.653Z,6.63
2017-07-03T18:35:25.655Z,9.43
2017-07-03T18:37:54.789Z,9.00
2017-07-03T18:40:22.966Z,7.20
2017-07-03T18:42:51.279Z,3.63
2017-07-03T18:45:19.476Z,2.53
2017-07-03T18:47:48.427Z,4.00
2017-07-03T18:50:16.612Z,2.67
2017-07-03T18:52:44.858Z,4.40
2017-07-03T18:55:13.058Z,2.73
2017-07-03T18:57:41.236Z,8.40
2017-07-03T19:00:09.427Z,3.30
2017-07-03T19:02:38.389Z,10.63
2017-07-03T19:05:06.568Z,19.17
2017-07-03T19:07:34.801Z,7.43
2017-07-03T19:10:02.996Z,9.90
2017-07-03T19:12:31.163Z,7.30
2017-07-03T19:14:59.375Z,3.30
2017-07-03T19:17:27.547Z,4.93
2017-07-03T19:19:55.748Z,3.27
2017-07-03T19:22:24.808Z,2.70
2017-07-03T19:24:53.028Z,2.53
2017-07-03T19:27:21.222Z,3.23
2017-07-03T19:29:49.426Z,5.27
2017-07-03T19:32:17.664Z,6.20
2017-07-03T19:34:45.946Z,4.70
2017-07-03T19:37:14.138Z,2.67
2017-07-03T19:39:42.401Z,5.33
2017-07-03T19:42:10.595Z,3.77
2017-07-03T19:44:38.782Z,4.07
2017-07-03T19:47:07.770Z,6.80
2017-07-03T19:49:36.733Z,12.87
2017-07-03T19:52:04.985Z,14.23
2017-07-03T19:54:33.191Z,6.43
2017-07-03T19:57:01.387Z,9.13
2017-07-03T19:59:29.649Z,8.00
2017-07-03T20:01:57.884Z,4.87
2017-07-03T20:04:26.883Z,6.63
2017-07-03T20:06:55.055Z,10.67
2017-07-03T20:09:23.245Z,8.80
2017-07-03T20:11:51.434Z,3.03
2017-07-03T20:14:20.811Z,4.10
2017-07-03T20:16:48.958Z,4.37
2017-07-03T20:19:17.152Z,3.60
2017-07-03T20:21:45.389Z,3.47
2017-07-03T20:24:13.650Z,6.10
2017-07-03T20:26:42.632Z,3.50
2017-07-03T20:29:10.865Z,8.80
2017-07-03T20:31:39.070Z,4.43
2017-07-03T20:34:07.582Z,5.90
2017-07-03T20:36:35.810Z,6.23
2017-07-03T20:39:03.949Z,3.63
2017-07-03T20:41:32.117Z,3.07
2017-07-03T20:44:00.353Z,3.60
2017-07-03T20:46:28.507Z,3.03
2017-07-03T20:48:56.702Z,2.53
2017-07-03T20:51:25.664Z,2.97
2017-07-03T20:53:53.921Z,4.37
2017-07-03T20:56:22.203Z,8.30
2017-07-03T20:58:50.511Z,8.17
2017-07-03T21:01:19.485Z,8.17
2017-07-03T21:03:47.771Z,10.13
2017-07-03T21:06:16.010Z,5.97
2017-07-03T21:08:45.025Z,7.83
2017-07-03T21:11:13.216Z,4.90
2017-07-03T21:13:42.218Z,6.40
2017-07-03T21:16:10.416Z,5.90
2017-07-03T21:18:38.614Z,4.57
2017-07-03T21:21:06.796Z,7.37
2017-07-03T21:23:34.989Z,5.70
2017-07-03T21:26:03.286Z,3.77
2017-07-03T21:28:31.442Z,6.40
2017-07-03T21:30:59.629Z,3.10
2017-07-03T21:33:28.587Z,3.83
2017-07-03T21:35:56.806Z,4.53
2017-07-03T21:38:26.709Z,4.97
2017-07-03T21:40:54.930Z,3.40
2017-07-03T21:43:23.093Z,6.40
2017-07-03T21:45:51.272Z,5.23
2017-07-03T21:48:19.504Z,6.70
2017-07-03T21:50:48.536Z,3.50
2017-07-03T21:53:16.727Z,4.50
2017-07-03T21:55:45.180Z,7.93
2017-07-03T21:58:13.335Z,5.70
2017-07-03T22:00:42.281Z,6.87
2017-07-03T22:03:10.494Z,4.07
2017-07-03T22:05:39.425Z,4.40
2017-07-03T22:08:07.603Z,7.73
2017-07-03T22:10:35.851Z,3.87
2017-07-03T22:13:04.048Z,4.37
2017-07-03T22:15:32.237Z,3.80
2017-07-03T22:18:00.463Z,6.27
2017-07-03T22:20:28.668Z,5.50
2017-07-03T22:22:56.858Z,7.33
2017-07-03T22:25:25.098Z,6.53
2017-07-03T22:27:53.274Z,5.03
2017-07-03T22:30:21.450Z,6.90
2017-07-03T22:32:49.667Z,4.03
2017-07-03T22:35:17.837Z,5.90
2017-07-03T22:37:46.014Z,4.27
2017-07-03T22:40:14.543Z,5.17
2017-07-03T22:42:42.727Z,4.00
2017-07-03T22:45:10.903Z,5.53
2017-07-03T22:47:39.139Z,6.30
2017-07-03T22:50:07.342Z,4.47
2017-07-03T22:52:35.508Z,4.00
2017-07-03T22:55:03.706Z,4.00
2017-07-03T22:57:31.890Z,6.00
2017-07-03T23:00:00.088Z,4.53
2017-07-03T23:02:28.313Z,5.83
2017-07-03T23:04:56.589Z,5.30
2017-07-03T23:07:24.815Z,5.20
2017-07-03T23:09:53.011Z,5.37
2017-07-03T23:12:21.259Z,4.00
2017-07-03T23:14:49.433Z,4.67
2017-07-03T23:17:17.658Z,4.13
2017-07-03T23:19:45.834Z,4.43
2017-07-03T23:22:14.017Z,4.60
2017-07-03T23:24:42.278Z,4.80
2017-07-03T23:27:10.496Z,5.23
2017-07-03T23:29:38.676Z,6.23
2017-07-03T23:32:07.036Z,5.97
2017-07-03T23:34:35.213Z,5.23
2017-07-03T23:37:03.401Z,4.90
2017-07-03T23:39:32.436Z,7.30
2017-07-03T23:42:00.694Z,6.47
2017-07-03T23:44:28.948Z,7.00
2017-07-03T23:46:57.920Z,4.10
2017-07-03T23:49:26.096Z,5.10
2017-07-03T23:51:54.275Z,9.53
2017-07-03T23:54:22.508Z,6.93
2017-07-03T23:56:50.755Z,6.33
2017-07-03T23:59:18.951Z,4.80
